sensor_id;sensor_type;location;lat;lon;timestamp;P1;durP1;ratioP1;P2;durP2;ratioP2
65835;SDS011;52595;51.608;7.216;2023-03-05T00:00:15;15.05;;;3.10;;
65835;SDS011;52595;51.608;7.216;2023-03-05T00:02:41;12.30;;;3.50;;
65835;SDS011;52595;51.608;7.216;2023-03-05T00:05:07;10.63;;;2.67;;
65835;SDS011;52595;51.608;7.216;2023-03-05T00:07:33;11.30;;;2.97;;
65835;SDS011;52595;51.608;7.216;2023-03-05T00:09:59;9.27;;;3.35;;
65835;SDS011;52595;51.608;7.216;2023-03-05T00:12:24;11.80;;;3.00;;
65835;SDS011;52595;51.608;7.216;2023-03-05T00:14:50;10.38;;;2.65;;
65835;SDS011;52595;51.608;7.216;2023-03-05T00:17:15;12.35;;;2.90;;
65835;SDS011;52595;51.608;7.216;2023-03-05T00:19:41;16.98;;;4.10;;
65835;SDS011;52595;51.608;7.216;2023-03-05T00:22:06;10.65;;;2.80;;
65835;SDS011;52595;51.608;7.216;2023-03-05T00:24:31;10.50;;;2.70;;
65835;SDS011;52595;51.608;7.216;2023-03-05T00:26:57;13.57;;;3.00;;
65835;SDS011;52595;51.608;7.216;2023-03-05T00:29:22;10.35;;;2.85;;
65835;SDS011;52595;51.608;7.216;2023-03-05T00:31:48;10.95;;;2.95;;
65835;SDS011;52595;51.608;7.216;2023-03-05T00:34:14;8.80;;;2.40;;
65835;SDS011;52595;51.608;7.216;2023-03-05T00:36:43;9.20;;;2.80;;
65835;SDS011;52595;51.608;7.216;2023-03-05T00:39:11;15.57;;;3.20;;
65835;SDS011;52595;51.608;7.216;2023-03-05T00:41:37;12.13;;;2.90;;
65835;SDS011;52595;51.608;7.216;2023-03-05T00:44:03;10.07;;;3.10;;
65835;SDS011;52595;51.608;7.216;2023-03-05T00:46:28;10.07;;;2.83;;
65835;SDS011;52595;51.608;7.216;2023-03-05T00:48:54;9.93;;;3.47;;
65835;SDS011;52595;51.608;7.216;2023-03-05T00:51:21;11.00;;;3.00;;
65835;SDS011;52595;51.608;7.216;2023-03-05T00:53:46;11.10;;;3.08;;
65835;SDS011;52595;51.608;7.216;2023-03-05T00:56:12;8.32;;;2.55;;
65835;SDS011;52595;51.608;7.216;2023-03-05T00:58:37;11.93;;;2.60;;
65835;SDS011;52595;51.608;7.216;2023-03-05T01:01:03;12.20;;;3.47;;
65835;SDS011;52595;51.608;7.216;2023-03-05T01:03:30;9.43;;;2.50;;
65835;SDS011;52595;51.608;7.216;2023-03-05T01:05:57;9.82;;;2.80;;
65835;SDS011;52595;51.608;7.216;2023-03-05T01:08:24;8.48;;;2.78;;
65835;SDS011;52595;51.608;7.216;2023-03-05T01:10:50;8.15;;;2.55;;
65835;SDS011;52595;51.608;7.216;2023-03-05T01:13:16;7.55;;;3.17;;
65835;SDS011;52595;51.608;7.216;2023-03-05T01:15:42;12.00;;;3.05;;
65835;SDS011;52595;51.608;7.216;2023-03-05T01:18:07;7.75;;;2.80;;
65835;SDS011;52595;51.608;7.216;2023-03-05T01:20:33;11.23;;;2.92;;
65835;SDS011;52595;51.608;7.216;2023-03-05T01:22:58;9.25;;;2.70;;
65835;SDS011;52595;51.608;7.216;2023-03-05T01:25:26;13.93;;;2.88;;
65835;SDS011;52595;51.608;7.216;2023-03-05T01:27:51;9.77;;;2.70;;
65835;SDS011;52595;51.608;7.216;2023-03-05T01:30:17;10.73;;;2.78;;
65835;SDS011;52595;51.608;7.216;2023-03-05T01:32:42;10.55;;;3.10;;
65835;SDS011;52595;51.608;7.216;2023-03-05T01:35:08;7.88;;;2.40;;
65835;SDS011;52595;51.608;7.216;2023-03-05T01:37:39;10.52;;;2.90;;
65835;SDS011;52595;51.608;7.216;2023-03-05T01:40:04;8.82;;;2.30;;
65835;SDS011;52595;51.608;7.216;2023-03-05T01:42:30;6.15;;;2.28;;
65835;SDS011;52595;51.608;7.216;2023-03-05T01:45:00;9.48;;;2.60;;
65835;SDS011;52595;51.608;7.216;2023-03-05T01:47:31;7.10;;;2.50;;
65835;SDS011;52595;51.608;7.216;2023-03-05T01:49:56;9.45;;;2.47;;
65835;SDS011;52595;51.608;7.216;2023-03-05T01:52:22;10.55;;;2.80;;
65835;SDS011;52595;51.608;7.216;2023-03-05T01:54:49;6.78;;;2.60;;
65835;SDS011;52595;51.608;7.216;2023-03-05T01:59:55;7.25;;;2.60;;
65835;SDS011;52595;51.608;7.216;2023-03-05T02:02:25;9.50;;;2.38;;
65835;SDS011;52595;51.608;7.216;2023-03-05T02:04:54;7.97;;;2.90;;
65835;SDS011;52595;51.608;7.216;2023-03-05T02:07:23;8.75;;;2.50;;
65835;SDS011;52595;51.608;7.216;2023-03-05T02:09:49;6.10;;;2.20;;
65835;SDS011;52595;51.608;7.216;2023-03-05T02:12:14;12.45;;;2.40;;
65835;SDS011;52595;51.608;7.216;2023-03-05T02:14:41;9.68;;;2.45;;
65835;SDS011;52595;51.608;7.216;2023-03-05T02:17:10;6.32;;;1.90;;
65835;SDS011;52595;51.608;7.216;2023-03-05T02:19:46;7.80;;;2.63;;
65835;SDS011;52595;51.608;7.216;2023-03-05T02:22:13;6.90;;;2.38;;
65835;SDS011;52595;51.608;7.216;2023-03-05T02:24:40;7.88;;;2.13;;
65835;SDS011;52595;51.608;7.216;2023-03-05T02:27:05;9.07;;;1.90;;
65835;SDS011;52595;51.608;7.216;2023-03-05T02:29:31;5.35;;;1.90;;
65835;SDS011;52595;51.608;7.216;2023-03-05T02:31:58;7.47;;;2.15;;
65835;SDS011;52595;51.608;7.216;2023-03-05T02:34:24;9.40;;;2.17;;
65835;SDS011;52595;51.608;7.216;2023-03-05T02:36:50;5.00;;;1.83;;
65835;SDS011;52595;51.608;7.216;2023-03-05T02:39:16;7.60;;;2.17;;
65835;SDS011;52595;51.608;7.216;2023-03-05T02:41:41;7.35;;;2.00;;
65835;SDS011;52595;51.608;7.216;2023-03-05T02:44:07;7.10;;;2.00;;
65835;SDS011;52595;51.608;7.216;2023-03-05T02:46:32;7.45;;;1.92;;
65835;SDS011;52595;51.608;7.216;2023-03-05T02:48:58;7.03;;;2.00;;
65835;SDS011;52595;51.608;7.216;2023-03-05T02:51:23;7.90;;;2.33;;
65835;SDS011;52595;51.608;7.216;2023-03-05T02:53:49;10.18;;;2.20;;
65835;SDS011;52595;51.608;7.216;2023-03-05T02:56:14;6.53;;;1.95;;
65835;SDS011;52595;51.608;7.216;2023-03-05T02:58:40;11.63;;;3.20;;
65835;SDS011;52595;51.608;7.216;2023-03-05T03:01:06;7.55;;;2.33;;
65835;SDS011;52595;51.608;7.216;2023-03-05T03:03:33;8.85;;;2.30;;
65835;SDS011;52595;51.608;7.216;2023-03-05T03:05:58;12.15;;;2.50;;
65835;SDS011;52595;51.608;7.216;2023-03-05T03:08:23;8.15;;;2.67;;
65835;SDS011;52595;51.608;7.216;2023-03-05T03:10:49;13.75;;;3.03;;
65835;SDS011;52595;51.608;7.216;2023-03-05T03:13:14;10.23;;;2.80;;
65835;SDS011;52595;51.608;7.216;2023-03-05T03:15:39;10.73;;;2.60;;
65835;SDS011;52595;51.608;7.216;2023-03-05T03:18:05;10.00;;;3.03;;
65835;SDS011;52595;51.608;7.216;2023-03-05T03:20:30;10.30;;;2.90;;
65835;SDS011;52595;51.608;7.216;2023-03-05T03:22:58;10.35;;;3.08;;
65835;SDS011;52595;51.608;7.216;2023-03-05T03:25:24;8.13;;;2.80;;
65835;SDS011;52595;51.608;7.216;2023-03-05T03:27:50;14.00;;;3.00;;
65835;SDS011;52595;51.608;7.216;2023-03-05T03:30:15;8.32;;;2.83;;
65835;SDS011;52595;51.608;7.216;2023-03-05T03:32:41;14.73;;;3.00;;
65835;SDS011;52595;51.608;7.216;2023-03-05T03:35:07;11.65;;;3.15;;
65835;SDS011;52595;51.608;7.216;2023-03-05T03:37:32;9.43;;;3.15;;
65835;SDS011;52595;51.608;7.216;2023-03-05T03:39:58;13.38;;;3.42;;
65835;SDS011;52595;51.608;7.216;2023-03-05T03:42:23;12.77;;;3.60;;
65835;SDS011;52595;51.608;7.216;2023-03-05T03:44:49;9.15;;;3.72;;
65835;SDS011;52595;51.608;7.216;2023-03-05T03:47:15;15.90;;;5.05;;
65835;SDS011;52595;51.608;7.216;2023-03-05T03:49:41;10.00;;;3.65;;
65835;SDS011;52595;51.608;7.216;2023-03-05T03:52:06;12.82;;;4.50;;
65835;SDS011;52595;51.608;7.216;2023-03-05T03:54:32;10.45;;;3.65;;
65835;SDS011;52595;51.608;7.216;2023-03-05T03:56:58;13.30;;;4.03;;
65835;SDS011;52595;51.608;7.216;2023-03-05T03:59:23;15.68;;;3.83;;
65835;SDS011;52595;51.608;7.216;2023-03-05T04:01:48;11.95;;;4.30;;
65835;SDS011;52595;51.608;7.216;2023-03-05T04:04:14;11.63;;;3.75;;
65835;SDS011;52595;51.608;7.216;2023-03-05T04:06:40;12.27;;;4.10;;
65835;SDS011;52595;51.608;7.216;2023-03-05T04:09:06;13.38;;;4.40;;
65835;SDS011;52595;51.608;7.216;2023-03-05T04:11:35;14.07;;;4.00;;
65835;SDS011;52595;51.608;7.216;2023-03-05T04:14:01;10.43;;;4.30;;
65835;SDS011;52595;51.608;7.216;2023-03-05T04:16:27;13.48;;;3.88;;
65835;SDS011;52595;51.608;7.216;2023-03-05T04:18:52;11.32;;;3.90;;
65835;SDS011;52595;51.608;7.216;2023-03-05T04:21:18;10.95;;;3.53;;
65835;SDS011;52595;51.608;7.216;2023-03-05T04:23:43;9.63;;;4.07;;
65835;SDS011;52595;51.608;7.216;2023-03-05T04:26:08;19.52;;;4.57;;
65835;SDS011;52595;51.608;7.216;2023-03-05T04:28:34;12.40;;;4.40;;
65835;SDS011;52595;51.608;7.216;2023-03-05T04:30:59;14.23;;;4.30;;
65835;SDS011;52595;51.608;7.216;2023-03-05T04:33:25;13.15;;;3.67;;
65835;SDS011;52595;51.608;7.216;2023-03-05T04:35:50;10.88;;;3.35;;
65835;SDS011;52595;51.608;7.216;2023-03-05T04:38:16;10.20;;;3.45;;
65835;SDS011;52595;51.608;7.216;2023-03-05T04:40:43;9.73;;;3.35;;
65835;SDS011;52595;51.608;7.216;2023-03-05T04:43:09;11.63;;;3.35;;
65835;SDS011;52595;51.608;7.216;2023-03-05T04:45:34;8.93;;;3.08;;
65835;SDS011;52595;51.608;7.216;2023-03-05T04:48:03;10.90;;;3.40;;
65835;SDS011;52595;51.608;7.216;2023-03-05T04:50:28;13.07;;;3.22;;
65835;SDS011;52595;51.608;7.216;2023-03-05T04:52:54;9.70;;;3.72;;
65835;SDS011;52595;51.608;7.216;2023-03-05T04:55:20;8.32;;;3.42;;
65835;SDS011;52595;51.608;7.216;2023-03-05T04:57:45;9.50;;;3.30;;
65835;SDS011;52595;51.608;7.216;2023-03-05T05:00:11;5.15;;;2.80;;
65835;SDS011;52595;51.608;7.216;2023-03-05T05:02:39;10.93;;;3.35;;
65835;SDS011;52595;51.608;7.216;2023-03-05T05:05:09;10.68;;;3.33;;
65835;SDS011;52595;51.608;7.216;2023-03-05T05:07:37;10.18;;;2.70;;
65835;SDS011;52595;51.608;7.216;2023-03-05T05:10:03;8.55;;;3.33;;
65835;SDS011;52595;51.608;7.216;2023-03-05T05:12:30;9.13;;;3.40;;
65835;SDS011;52595;51.608;7.216;2023-03-05T05:14:56;10.70;;;3.08;;
65835;SDS011;52595;51.608;7.216;2023-03-05T05:17:22;8.30;;;3.40;;
65835;SDS011;52595;51.608;7.216;2023-03-05T05:19:48;9.45;;;3.70;;
65835;SDS011;52595;51.608;7.216;2023-03-05T05:22:13;9.23;;;3.90;;
65835;SDS011;52595;51.608;7.216;2023-03-05T05:24:39;14.30;;;6.35;;
65835;SDS011;52595;51.608;7.216;2023-03-05T05:27:04;20.88;;;7.30;;
65835;SDS011;52595;51.608;7.216;2023-03-05T05:29:30;15.20;;;7.55;;
65835;SDS011;52595;51.608;7.216;2023-03-05T05:31:55;17.83;;;7.25;;
65835;SDS011;52595;51.608;7.216;2023-03-05T05:34:21;18.65;;;7.15;;
65835;SDS011;52595;51.608;7.216;2023-03-05T05:36:49;11.90;;;5.43;;
65835;SDS011;52595;51.608;7.216;2023-03-05T05:39:14;11.32;;;5.63;;
65835;SDS011;52595;51.608;7.216;2023-03-05T05:41:39;14.88;;;4.60;;
65835;SDS011;52595;51.608;7.216;2023-03-05T05:44:05;10.88;;;3.90;;
65835;SDS011;52595;51.608;7.216;2023-03-05T05:46:30;9.55;;;3.75;;
65835;SDS011;52595;51.608;7.216;2023-03-05T05:48:55;13.90;;;4.93;;
65835;SDS011;52595;51.608;7.216;2023-03-05T05:51:21;9.35;;;3.88;;
65835;SDS011;52595;51.608;7.216;2023-03-05T05:53:47;10.68;;;3.53;;
65835;SDS011;52595;51.608;7.216;2023-03-05T05:56:13;8.85;;;3.75;;
65835;SDS011;52595;51.608;7.216;2023-03-05T05:58:41;8.82;;;3.45;;
65835;SDS011;52595;51.608;7.216;2023-03-05T06:03:50;8.73;;;3.92;;
65835;SDS011;52595;51.608;7.216;2023-03-05T06:06:17;11.93;;;3.67;;
65835;SDS011;52595;51.608;7.216;2023-03-05T06:08:44;9.63;;;3.65;;
65835;SDS011;52595;51.608;7.216;2023-03-05T06:11:10;5.72;;;2.47;;
65835;SDS011;52595;51.608;7.216;2023-03-05T06:13:36;9.85;;;3.22;;
65835;SDS011;52595;51.608;7.216;2023-03-05T06:16:03;15.77;;;3.38;;
65835;SDS011;52595;51.608;7.216;2023-03-05T06:18:30;9.35;;;2.95;;
65835;SDS011;52595;51.608;7.216;2023-03-05T06:20:57;11.25;;;2.70;;
65835;SDS011;52595;51.608;7.216;2023-03-05T06:23:24;13.48;;;3.47;;
65835;SDS011;52595;51.608;7.216;2023-03-05T06:25:51;10.20;;;3.25;;
65835;SDS011;52595;51.608;7.216;2023-03-05T06:28:17;14.90;;;3.78;;
65835;SDS011;52595;51.608;7.216;2023-03-05T06:30:43;11.00;;;4.15;;
65835;SDS011;52595;51.608;7.216;2023-03-05T06:33:08;11.02;;;4.15;;
65835;SDS011;52595;51.608;7.216;2023-03-05T06:35:36;11.05;;;4.13;;
65835;SDS011;52595;51.608;7.216;2023-03-05T06:38:05;14.88;;;4.57;;
65835;SDS011;52595;51.608;7.216;2023-03-05T06:40:31;12.70;;;4.15;;
65835;SDS011;52595;51.608;7.216;2023-03-05T06:42:56;12.60;;;4.60;;
65835;SDS011;52595;51.608;7.216;2023-03-05T06:45:22;14.05;;;4.60;;
65835;SDS011;52595;51.608;7.216;2023-03-05T06:47:47;8.00;;;3.50;;
65835;SDS011;52595;51.608;7.216;2023-03-05T06:50:13;13.63;;;4.35;;
65835;SDS011;52595;51.608;7.216;2023-03-05T06:52:38;11.40;;;4.20;;
65835;SDS011;52595;51.608;7.216;2023-03-05T06:55:05;14.73;;;4.60;;
65835;SDS011;52595;51.608;7.216;2023-03-05T06:57:31;12.82;;;4.60;;
65835;SDS011;52595;51.608;7.216;2023-03-05T06:59:56;10.73;;;3.97;;
65835;SDS011;52595;51.608;7.216;2023-03-05T07:02:22;14.75;;;4.68;;
65835;SDS011;52595;51.608;7.216;2023-03-05T07:04:47;14.35;;;4.82;;
65835;SDS011;52595;51.608;7.216;2023-03-05T07:07:12;11.68;;;4.65;;
65835;SDS011;52595;51.608;7.216;2023-03-05T07:09:38;11.55;;;4.30;;
65835;SDS011;52595;51.608;7.216;2023-03-05T07:12:07;15.80;;;5.60;;
65835;SDS011;52595;51.608;7.216;2023-03-05T07:14:35;15.80;;;5.78;;
65835;SDS011;52595;51.608;7.216;2023-03-05T07:17:01;17.45;;;5.82;;
65835;SDS011;52595;51.608;7.216;2023-03-05T07:19:26;14.07;;;5.55;;
65835;SDS011;52595;51.608;7.216;2023-03-05T07:21:51;11.15;;;5.57;;
65835;SDS011;52595;51.608;7.216;2023-03-05T07:24:17;15.13;;;6.20;;
65835;SDS011;52595;51.608;7.216;2023-03-05T07:26:42;18.17;;;6.53;;
65835;SDS011;52595;51.608;7.216;2023-03-05T07:29:08;13.50;;;5.80;;
65835;SDS011;52595;51.608;7.216;2023-03-05T07:31:33;16.30;;;6.03;;
65835;SDS011;52595;51.608;7.216;2023-03-05T07:33:59;14.80;;;5.97;;
65835;SDS011;52595;51.608;7.216;2023-03-05T07:36:26;10.27;;;4.50;;
65835;SDS011;52595;51.608;7.216;2023-03-05T07:38:52;10.40;;;5.57;;
65835;SDS011;52595;51.608;7.216;2023-03-05T07:41:18;12.50;;;5.53;;
65835;SDS011;52595;51.608;7.216;2023-03-05T07:43:44;15.18;;;6.20;;
65835;SDS011;52595;51.608;7.216;2023-03-05T07:46:11;12.68;;;6.40;;
65835;SDS011;52595;51.608;7.216;2023-03-05T07:48:39;14.57;;;6.65;;
65835;SDS011;52595;51.608;7.216;2023-03-05T07:51:05;13.98;;;6.68;;
65835;SDS011;52595;51.608;7.216;2023-03-05T07:53:33;12.88;;;5.43;;
65835;SDS011;52595;51.608;7.216;2023-03-05T07:55:58;16.58;;;6.22;;
65835;SDS011;52595;51.608;7.216;2023-03-05T07:58:24;17.15;;;5.47;;
65835;SDS011;52595;51.608;7.216;2023-03-05T08:00:49;14.70;;;5.85;;
65835;SDS011;52595;51.608;7.216;2023-03-05T08:03:15;9.95;;;4.93;;
65835;SDS011;52595;51.608;7.216;2023-03-05T08:05:40;10.95;;;5.03;;
65835;SDS011;52595;51.608;7.216;2023-03-05T08:08:06;19.08;;;6.55;;
65835;SDS011;52595;51.608;7.216;2023-03-05T08:10:33;11.35;;;5.65;;
65835;SDS011;52595;51.608;7.216;2023-03-05T08:12:59;15.82;;;6.47;;
65835;SDS011;52595;51.608;7.216;2023-03-05T08:15:24;8.23;;;4.60;;
65835;SDS011;52595;51.608;7.216;2023-03-05T08:17:50;10.48;;;4.47;;
65835;SDS011;52595;51.608;7.216;2023-03-05T08:20:15;13.80;;;6.18;;
65835;SDS011;52595;51.608;7.216;2023-03-05T08:22:41;13.95;;;5.35;;
65835;SDS011;52595;51.608;7.216;2023-03-05T08:25:06;17.23;;;6.68;;
65835;SDS011;52595;51.608;7.216;2023-03-05T08:27:32;18.52;;;6.50;;
65835;SDS011;52595;51.608;7.216;2023-03-05T08:29:59;15.48;;;6.05;;
65835;SDS011;52595;51.608;7.216;2023-03-05T08:32:26;9.30;;;5.50;;
65835;SDS011;52595;51.608;7.216;2023-03-05T08:34:54;16.55;;;6.30;;
65835;SDS011;52595;51.608;7.216;2023-03-05T08:37:21;17.10;;;6.00;;
65835;SDS011;52595;51.608;7.216;2023-03-05T08:39:47;12.07;;;5.65;;
65835;SDS011;52595;51.608;7.216;2023-03-05T08:42:12;14.43;;;5.03;;
65835;SDS011;52595;51.608;7.216;2023-03-05T08:44:37;11.95;;;4.70;;
65835;SDS011;52595;51.608;7.216;2023-03-05T08:47:03;9.02;;;4.55;;
65835;SDS011;52595;51.608;7.216;2023-03-05T08:49:28;10.15;;;5.22;;
65835;SDS011;52595;51.608;7.216;2023-03-05T08:51:53;9.43;;;4.63;;
65835;SDS011;52595;51.608;7.216;2023-03-05T08:54:19;12.63;;;4.40;;
65835;SDS011;52595;51.608;7.216;2023-03-05T08:56:44;10.82;;;4.95;;
65835;SDS011;52595;51.608;7.216;2023-03-05T08:59:10;13.63;;;5.88;;
65835;SDS011;52595;51.608;7.216;2023-03-05T09:01:35;7.43;;;4.85;;
65835;SDS011;52595;51.608;7.216;2023-03-05T09:04:00;7.53;;;4.25;;
65835;SDS011;52595;51.608;7.216;2023-03-05T09:06:26;11.73;;;4.47;;
65835;SDS011;52595;51.608;7.216;2023-03-05T09:08:51;10.85;;;4.88;;
65835;SDS011;52595;51.608;7.216;2023-03-05T09:11:17;11.02;;;5.05;;
65835;SDS011;52595;51.608;7.216;2023-03-05T09:13:43;9.73;;;4.40;;
65835;SDS011;52595;51.608;7.216;2023-03-05T09:16:13;13.20;;;5.60;;
65835;SDS011;52595;51.608;7.216;2023-03-05T09:18:40;7.70;;;4.70;;
65835;SDS011;52595;51.608;7.216;2023-03-05T09:21:12;9.38;;;4.70;;
65835;SDS011;52595;51.608;7.216;2023-03-05T09:23:40;13.32;;;5.10;;
65835;SDS011;52595;51.608;7.216;2023-03-05T09:26:07;8.70;;;4.45;;
65835;SDS011;52595;51.608;7.216;2023-03-05T09:28:34;13.10;;;5.93;;
65835;SDS011;52595;51.608;7.216;2023-03-05T09:31:03;14.63;;;5.90;;
65835;SDS011;52595;51.608;7.216;2023-03-05T09:33:30;11.80;;;5.50;;
65835;SDS011;52595;51.608;7.216;2023-03-05T09:35:56;9.38;;;5.60;;
65835;SDS011;52595;51.608;7.216;2023-03-05T09:38:22;12.20;;;5.30;;
65835;SDS011;52595;51.608;7.216;2023-03-05T09:40:52;10.35;;;5.30;;
65835;SDS011;52595;51.608;7.216;2023-03-05T09:46:35;11.30;;;5.93;;
65835;SDS011;52595;51.608;7.216;2023-03-05T09:49:14;12.15;;;6.15;;
65835;SDS011;52595;51.608;7.216;2023-03-05T09:51:40;11.23;;;5.65;;
65835;SDS011;52595;51.608;7.216;2023-03-05T09:54:18;9.25;;;5.43;;
65835;SDS011;52595;51.608;7.216;2023-03-05T09:56:47;12.13;;;6.40;;
65835;SDS011;52595;51.608;7.216;2023-03-05T10:02:12;13.85;;;6.50;;
65835;SDS011;52595;51.608;7.216;2023-03-05T10:05:03;11.82;;;6.50;;
65835;SDS011;52595;51.608;7.216;2023-03-05T10:07:40;12.75;;;6.65;;
65835;SDS011;52595;51.608;7.216;2023-03-05T10:10:13;13.90;;;7.70;;
65835;SDS011;52595;51.608;7.216;2023-03-05T10:12:43;12.30;;;7.78;;
65835;SDS011;52595;51.608;7.216;2023-03-05T10:15:33;16.83;;;7.82;;
65835;SDS011;52595;51.608;7.216;2023-03-05T10:21:12;14.73;;;8.27;;
65835;SDS011;52595;51.608;7.216;2023-03-05T10:23:57;12.98;;;7.70;;
65835;SDS011;52595;51.608;7.216;2023-03-05T10:26:56;13.27;;;7.55;;
65835;SDS011;52595;51.608;7.216;2023-03-05T10:34:39;13.50;;;6.60;;
65835;SDS011;52595;51.608;7.216;2023-03-05T10:42:46;8.90;;;4.68;;
65835;SDS011;52595;51.608;7.216;2023-03-05T10:48:06;9.18;;;4.85;;
65835;SDS011;52595;51.608;7.216;2023-03-05T10:51:03;5.72;;;3.70;;
65835;SDS011;52595;51.608;7.216;2023-03-05T10:56:04;7.50;;;4.18;;
65835;SDS011;52595;51.608;7.216;2023-03-05T10:58:31;8.10;;;3.72;;
65835;SDS011;52595;51.608;7.216;2023-03-05T11:06:12;5.85;;;3.05;;
65835;SDS011;52595;51.608;7.216;2023-03-05T11:08:38;4.38;;;2.75;;
65835;SDS011;52595;51.608;7.216;2023-03-05T11:16:16;7.53;;;3.78;;
65835;SDS011;52595;51.608;7.216;2023-03-05T11:18:44;9.70;;;3.65;;
65835;SDS011;52595;51.608;7.216;2023-03-05T11:21:23;5.65;;;3.38;;
65835;SDS011;52595;51.608;7.216;2023-03-05T11:26:30;5.15;;;3.28;;
65835;SDS011;52595;51.608;7.216;2023-03-05T11:28:59;4.72;;;2.67;;
65835;SDS011;52595;51.608;7.216;2023-03-05T11:31:30;5.57;;;2.30;;
65835;SDS011;52595;51.608;7.216;2023-03-05T11:34:20;5.53;;;2.60;;
65835;SDS011;52595;51.608;7.216;2023-03-05T11:39:20;6.75;;;3.08;;
65835;SDS011;52595;51.608;7.216;2023-03-05T11:41:48;6.07;;;2.72;;
65835;SDS011;52595;51.608;7.216;2023-03-05T11:44:23;4.25;;;2.60;;
65835;SDS011;52595;51.608;7.216;2023-03-05T11:46:56;5.90;;;2.50;;
65835;SDS011;52595;51.608;7.216;2023-03-05T11:49:27;4.35;;;2.40;;
65835;SDS011;52595;51.608;7.216;2023-03-05T11:52:10;4.30;;;2.40;;
65835;SDS011;52595;51.608;7.216;2023-03-05T11:54:45;4.50;;;2.40;;
65835;SDS011;52595;51.608;7.216;2023-03-05T11:57:22;6.30;;;3.20;;
65835;SDS011;52595;51.608;7.216;2023-03-05T11:59:50;5.22;;;2.83;;
65835;SDS011;52595;51.608;7.216;2023-03-05T12:02:21;5.60;;;3.17;;
65835;SDS011;52595;51.608;7.216;2023-03-05T12:04:48;5.30;;;3.13;;
65835;SDS011;52595;51.608;7.216;2023-03-05T12:07:25;6.38;;;3.13;;
65835;SDS011;52595;51.608;7.216;2023-03-05T12:09:59;4.90;;;3.10;;
65835;SDS011;52595;51.608;7.216;2023-03-05T12:12:34;4.32;;;2.90;;
65835;SDS011;52595;51.608;7.216;2023-03-05T12:21:04;5.40;;;3.00;;
65835;SDS011;52595;51.608;7.216;2023-03-05T12:23:51;7.63;;;2.40;;
65835;SDS011;52595;51.608;7.216;2023-03-05T12:26:52;3.80;;;2.10;;
65835;SDS011;52595;51.608;7.216;2023-03-05T12:32:50;5.63;;;2.30;;
65835;SDS011;52595;51.608;7.216;2023-03-05T12:34:56;3.85;;;2.10;;
65835;SDS011;52595;51.608;7.216;2023-03-05T12:47:40;2.28;;;1.70;;
65835;SDS011;52595;51.608;7.216;2023-03-05T12:50:48;3.07;;;1.87;;
65835;SDS011;52595;51.608;7.216;2023-03-05T12:52:57;4.07;;;2.03;;
65835;SDS011;52595;51.608;7.216;2023-03-05T13:00:46;3.00;;;1.80;;
65835;SDS011;52595;51.608;7.216;2023-03-05T13:03:33;3.03;;;1.90;;
65835;SDS011;52595;51.608;7.216;2023-03-05T13:06:01;5.47;;;1.90;;
65835;SDS011;52595;51.608;7.216;2023-03-05T13:08:30;5.30;;;2.10;;
65835;SDS011;52595;51.608;7.216;2023-03-05T13:13:30;3.67;;;2.15;;
65835;SDS011;52595;51.608;7.216;2023-03-05T13:15:58;3.95;;;1.70;;
65835;SDS011;52595;51.608;7.216;2023-03-05T13:21:04;4.05;;;1.70;;
65835;SDS011;52595;51.608;7.216;2023-03-05T13:23:30;3.92;;;1.60;;
65835;SDS011;52595;51.608;7.216;2023-03-05T13:26:19;2.83;;;1.50;;
65835;SDS011;52595;51.608;7.216;2023-03-05T13:29:29;2.65;;;1.70;;
65835;SDS011;52595;51.608;7.216;2023-03-05T13:31:30;2.78;;;1.83;;
65835;SDS011;52595;51.608;7.216;2023-03-05T13:33:58;6.00;;;1.90;;
65835;SDS011;52595;51.608;7.216;2023-03-05T13:36:35;3.33;;;1.80;;
65835;SDS011;52595;51.608;7.216;2023-03-05T13:39:01;3.35;;;1.65;;
65835;SDS011;52595;51.608;7.216;2023-03-05T13:41:28;4.25;;;2.05;;
65835;SDS011;52595;51.608;7.216;2023-03-05T13:43:57;2.47;;;1.70;;
65835;SDS011;52595;51.608;7.216;2023-03-05T13:48:51;5.70;;;2.40;;
65835;SDS011;52595;51.608;7.216;2023-03-05T13:51:17;3.13;;;1.60;;
65835;SDS011;52595;51.608;7.216;2023-03-05T13:53:42;3.67;;;1.50;;
65835;SDS011;52595;51.608;7.216;2023-03-05T13:56:12;4.40;;;1.60;;
65835;SDS011;52595;51.608;7.216;2023-03-05T13:58:39;3.20;;;1.95;;
65835;SDS011;52595;51.608;7.216;2023-03-05T14:06:48;2.72;;;1.80;;
65835;SDS011;52595;51.608;7.216;2023-03-05T14:11:51;2.72;;;1.70;;
65835;SDS011;52595;51.608;7.216;2023-03-05T14:14:18;3.78;;;1.60;;
65835;SDS011;52595;51.608;7.216;2023-03-05T14:16:47;3.00;;;1.80;;
65835;SDS011;52595;51.608;7.216;2023-03-05T14:22:03;2.90;;;1.52;;
65835;SDS011;52595;51.608;7.216;2023-03-05T14:24:30;3.42;;;1.70;;
65835;SDS011;52595;51.608;7.216;2023-03-05T14:26:56;4.80;;;2.20;;
65835;SDS011;52595;51.608;7.216;2023-03-05T14:29:25;2.88;;;1.70;;
65835;SDS011;52595;51.608;7.216;2023-03-05T14:31:59;3.78;;;1.65;;
65835;SDS011;52595;51.608;7.216;2023-03-05T14:37:15;4.55;;;1.77;;
65835;SDS011;52595;51.608;7.216;2023-03-05T14:40:19;3.53;;;1.80;;
65835;SDS011;52595;51.608;7.216;2023-03-05T14:42:48;4.00;;;1.80;;
65835;SDS011;52595;51.608;7.216;2023-03-05T14:45:19;4.10;;;1.40;;
65835;SDS011;52595;51.608;7.216;2023-03-05T14:47:48;3.58;;;1.52;;
65835;SDS011;52595;51.608;7.216;2023-03-05T14:50:15;2.30;;;1.80;;
65835;SDS011;52595;51.608;7.216;2023-03-05T14:52:45;3.25;;;1.70;;
65835;SDS011;52595;51.608;7.216;2023-03-05T14:55:13;3.40;;;1.80;;
65835;SDS011;52595;51.608;7.216;2023-03-05T14:57:43;2.75;;;1.90;;
65835;SDS011;52595;51.608;7.216;2023-03-05T15:00:20;2.65;;;1.67;;
65835;SDS011;52595;51.608;7.216;2023-03-05T15:02:47;3.88;;;1.73;;
65835;SDS011;52595;51.608;7.216;2023-03-05T15:05:13;4.55;;;1.88;;
65835;SDS011;52595;51.608;7.216;2023-03-05T15:07:39;5.10;;;1.90;;
65835;SDS011;52595;51.608;7.216;2023-03-05T15:10:04;8.63;;;2.67;;
65835;SDS011;52595;51.608;7.216;2023-03-05T15:12:32;5.45;;;2.72;;
65835;SDS011;52595;51.608;7.216;2023-03-05T15:14:57;5.07;;;2.90;;
65835;SDS011;52595;51.608;7.216;2023-03-05T15:17:33;4.22;;;2.50;;
65835;SDS011;52595;51.608;7.216;2023-03-05T15:20:00;4.53;;;2.42;;
65835;SDS011;52595;51.608;7.216;2023-03-05T15:22:31;5.55;;;2.92;;
65835;SDS011;52595;51.608;7.216;2023-03-05T15:24:56;3.55;;;2.42;;
65835;SDS011;52595;51.608;7.216;2023-03-05T15:27:21;4.50;;;2.70;;
65835;SDS011;52595;51.608;7.216;2023-03-05T15:29:47;3.90;;;2.40;;
65835;SDS011;52595;51.608;7.216;2023-03-05T15:32:12;4.05;;;2.30;;
65835;SDS011;52595;51.608;7.216;2023-03-05T15:34:37;5.18;;;2.83;;
65835;SDS011;52595;51.608;7.216;2023-03-05T15:37:03;3.75;;;1.95;;
65835;SDS011;52595;51.608;7.216;2023-03-05T15:39:29;4.90;;;2.20;;
65835;SDS011;52595;51.608;7.216;2023-03-05T15:41:54;4.07;;;2.28;;
65835;SDS011;52595;51.608;7.216;2023-03-05T15:44:20;7.32;;;2.40;;
65835;SDS011;52595;51.608;7.216;2023-03-05T15:46:45;4.38;;;2.30;;
65835;SDS011;52595;51.608;7.216;2023-03-05T15:49:11;4.25;;;2.75;;
65835;SDS011;52595;51.608;7.216;2023-03-05T15:51:37;4.75;;;2.70;;
65835;SDS011;52595;51.608;7.216;2023-03-05T15:54:03;5.50;;;2.90;;
65835;SDS011;52595;51.608;7.216;2023-03-05T15:56:28;3.30;;;2.30;;
65835;SDS011;52595;51.608;7.216;2023-03-05T15:58:54;3.80;;;2.60;;
65835;SDS011;52595;51.608;7.216;2023-03-05T16:01:19;7.18;;;3.10;;
65835;SDS011;52595;51.608;7.216;2023-03-05T16:03:53;5.50;;;3.10;;
65835;SDS011;52595;51.608;7.216;2023-03-05T16:06:19;6.80;;;3.33;;
65835;SDS011;52595;51.608;7.216;2023-03-05T16:08:48;5.60;;;2.65;;
65835;SDS011;52595;51.608;7.216;2023-03-05T16:11:16;4.10;;;2.40;;
65835;SDS011;52595;51.608;7.216;2023-03-05T16:13:42;3.67;;;2.25;;
65835;SDS011;52595;51.608;7.216;2023-03-05T16:16:08;3.97;;;2.50;;